Time;durP1;ratioP1;P1;durP2;ratioP2;P2;SDS_P1;SDS_P2;PMS_P1;PMS_P2;Temp;Humidity;BMP_temperature;BMP_pressure;BME280_temperature;BME280_humidity;BME280_pressure;Samples;Min_cycle;Max_cycle;Signal;HPM_P1;HPM_P2
2021/05/21 00:01:24;;;;;;;23.50;3.17;;;;;;;11.27;88.41;100468.34;5113033;28;20047;-48
2021/05/21 00:03:51;;;;;;;28.13;4.18;;;;;;;11.26;88.28;100469.47;5115010;28;20054;-48
2021/05/21 00:06:19;;;;;;;24.75;3.47;;;;;;;11.24;88.28;100471.75;5114514;28;20054;-49
2021/05/21 00:08:47;;;;;;;26.55;3.95;;;;;;;11.24;87.89;100462.56;5114389;28;20047;-49
2021/05/21 00:11:14;;;;;;;22.90;3.38;;;;;;;11.22;87.79;100453.66;5114711;28;20586;-47
2021/05/21 00:13:41;;;;;;;26.55;4.03;;;;;;;11.20;87.69;100448.38;5114764;28;20040;-47
2021/05/21 00:16:09;;;;;;;21.75;3.45;;;;;;;11.20;87.60;100450.34;5114281;27;20047;-52
2021/05/21 00:18:36;;;;;;;22.40;3.33;;;;;;;11.15;87.46;100451.31;5114640;28;20071;-47
2021/05/21 00:21:04;;;;;;;26.63;4.43;;;;;;;11.18;87.46;100438.69;5114364;28;20086;-46
2021/05/21 00:23:32;;;;;;;29.00;3.88;;;;;;;11.14;87.43;100415.31;5113956;28;20047;-50
2021/05/21 00:26:00;;;;;;;23.60;3.45;;;;;;;11.10;87.30;100431.03;5114471;28;20076;-51
2021/05/21 00:28:27;;;;;;;28.77;4.85;;;;;;;11.04;87.24;100428.34;5114416;28;20102;-47
2021/05/21 00:30:55;;;;;;;27.15;4.68;;;;;;;11.04;87.03;100421.94;5101162;28;20044;-47
2021/05/21 00:33:22;;;;;;;26.92;4.07;;;;;;;11.00;87.12;100420.91;5114277;28;20048;-47
2021/05/21 00:35:49;;;;;;;28.52;3.85;;;;;;;10.95;86.99;100419.09;5113516;28;20458;-47
2021/05/21 00:38:17;;;;;;;26.20;4.22;;;;;;;10.91;87.01;100417.22;5114296;28;20134;-48
2021/05/21 00:40:44;;;;;;;28.33;4.97;;;;;;;10.87;86.99;100422.59;5114280;28;20039;-47
2021/05/21 00:43:15;;;;;;;28.25;4.40;;;;;;;10.87;86.67;100410.59;5113545;28;20480;-46
2021/05/21 00:45:43;;;;;;;31.55;4.65;;;;;;;10.84;86.76;100411.22;5114101;28;20063;-47
2021/05/21 00:48:10;;;;;;;28.45;4.22;;;;;;;10.82;86.85;100396.75;5113791;28;20047;-48
2021/05/21 00:50:38;;;;;;;29.80;3.97;;;;;;;10.80;86.80;100397.06;5113561;28;20059;-48
2021/05/21 00:53:07;;;;;;;32.65;4.78;;;;;;;10.83;86.81;100390.03;5113935;28;20048;-45
2021/05/21 00:55:34;;;;;;;35.95;5.82;;;;;;;10.84;86.78;100389.72;5113976;28;20043;-50
2021/05/21 00:58:02;;;;;;;33.13;4.53;;;;;;;10.87;86.70;100382.69;5111766;28;20109;-49
2021/05/21 01:00:30;;;;;;;36.67;4.97;;;;;;;10.87;86.64;100372.34;5113769;28;20377;-51
2021/05/21 01:02:58;;;;;;;27.55;4.70;;;;;;;10.90;86.68;100382.91;5113204;28;20089;-45
2021/05/21 01:05:25;;;;;;;31.45;5.07;;;;;;;10.93;86.41;100376.69;5113447;28;20084;-49
2021/05/21 01:07:52;;;;;;;32.25;4.63;;;;;;;10.98;86.38;100384.97;5113812;28;20048;-45
2021/05/21 01:10:20;;;;;;;39.17;5.40;;;;;;;10.99;86.22;100364.25;5113524;28;20044;-45
2021/05/21 01:12:48;;;;;;;34.40;5.07;;;;;;;11.02;86.14;100374.78;5113053;28;20055;-45
2021/05/21 01:15:16;;;;;;;35.33;5.63;;;;;;;11.01;86.07;100377.91;5113269;28;20704;-46
2021/05/21 01:17:44;;;;;;;36.15;5.68;;;;;;;10.99;86.12;100381.00;5113573;28;20086;-44
2021/05/21 01:20:13;;;;;;;32.40;5.40;;;;;;;11.01;85.81;100377.91;5113403;28;20059;-48
2021/05/21 01:22:41;;;;;;;33.88;5.18;;;;;;;11.00;85.75;100370.66;5102395;28;20047;-45
2021/05/21 01:25:10;;;;;;;28.00;4.80;;;;;;;11.01;85.70;100353.59;5112795;28;20085;-46
2021/05/21 01:27:38;;;;;;;26.55;5.20;;;;;;;11.00;85.40;100363.09;5112991;28;20092;-46
2021/05/21 01:30:07;;;;;;;32.17;4.70;;;;;;;11.00;85.46;100345.53;5113270;28;20056;-44
2021/05/21 01:32:34;;;;;;;31.67;4.78;;;;;;;11.00;85.28;100346.34;5112659;28;20039;-46
2021/05/21 01:35:02;;;;;;;38.15;5.25;;;;;;;10.94;84.61;100341.22;5111749;28;20557;-48
2021/05/21 01:37:29;;;;;;;32.58;5.53;;;;;;;10.91;84.46;100333.47;5113053;28;20105;-47
2021/05/21 01:39:58;;;;;;;30.10;5.25;;;;;;;10.88;84.02;100318.19;5112481;28;20062;-47
2021/05/21 01:42:25;;;;;;;34.67;5.13;;;;;;;10.86;83.96;100322.41;5112713;28;20075;-50
2021/05/21 01:44:55;;;;;;;30.20;4.82;;;;;;;10.87;83.80;100315.69;5109231;28;20152;-46
2021/05/21 01:47:22;;;;;;;32.67;5.20;;;;;;;10.85;83.82;100310.44;5112540;28;20051;-47
2021/05/21 01:49:50;;;;;;;36.20;5.88;;;;;;;10.90;83.68;100298.31;5112798;28;20051;-45
2021/05/21 01:52:17;;;;;;;31.13;5.07;;;;;;;10.87;83.54;100299.78;5112689;28;20055;-47
2021/05/21 01:54:45;;;;;;;38.15;5.85;;;;;;;10.86;83.58;100298.13;5111802;28;20059;-46
2021/05/21 01:57:13;;;;;;;32.60;5.20;;;;;;;10.86;83.53;100292.53;5112687;28;20088;-46
2021/05/21 01:59:41;;;;;;;34.30;6.13;;;;;;;10.85;83.56;100288.09;5112500;28;20447;-46
2021/05/21 02:02:09;;;;;;;38.17;5.72;;;;;;;10.84;83.47;100280.88;5111885;28;20126;-46
2021/05/21 02:04:39;;;;;;;38.15;5.68;;;;;;;10.83;83.28;100286.75;5112622;28;20044;-48
2021/05/21 02:07:13;;;;;;;31.77;5.15;;;;;;;10.81;83.13;100283.47;5112053;28;20039;-48
2021/05/21 02:09:51;;;;;;;38.42;5.55;;;;;;;10.82;82.63;100283.16;5111792;28;20134;-47
2021/05/21 02:12:20;;;;;;;36.90;5.38;;;;;;;10.82;82.59;100276.75;5112396;28;20127;-42
2021/05/21 02:14:47;;;;;;;38.80;5.53;;;;;;;10.81;82.75;100270.31;5111752;28;20054;-48
2021/05/21 02:17:15;;;;;;;41.10;6.88;;;;;;;10.82;82.50;100271.16;5112232;28;20095;-43
2021/05/21 02:19:42;;;;;;;35.10;5.60;;;;;;;10.83;82.28;100270.00;5112164;28;20455;-48
2021/05/21 02:22:10;;;;;;;31.83;5.13;;;;;;;10.83;81.94;100272.81;5111860;28;20044;-48
2021/05/21 02:24:38;;;;;;;42.60;5.35;;;;;;;10.84;81.77;100260.50;5111754;28;20109;-45
2021/05/21 02:27:06;;;;;;;39.60;6.70;;;;;;;10.85;81.70;100262.16;5112225;28;20092;-47
2021/05/21 02:29:34;;;;;;;39.22;5.55;;;;;;;10.89;81.75;100255.63;5111438;28;20092;-50
2021/05/21 02:32:01;;;;;;;39.25;5.78;;;;;;;10.92;81.43;100249.41;5111844;28;20051;-52
2021/05/21 02:34:29;;;;;;;41.83;6.35;;;;;;;10.95;81.34;100261.94;5111993;28;20040;-49
2021/05/21 02:36:56;;;;;;;34.28;5.43;;;;;;;10.98;81.00;100250.13;5111482;28;20047;-50
2021/05/21 02:39:23;;;;;;;36.88;6.05;;;;;;;11.02;80.97;100245.53;5111849;28;20484;-46
2021/05/21 02:41:51;;;;;;;36.83;5.70;;;;;;;11.09;80.90;100233.94;5111681;28;20496;-48
2021/05/21 02:44:18;;;;;;;34.53;5.95;;;;;;;11.09;80.22;100250.69;5111297;28;20052;-50
2021/05/21 02:46:46;;;;;;;35.65;5.55;;;;;;;11.10;79.17;100228.03;5111377;28;20101;-48
2021/05/21 02:49:19;;;;;;;46.17;6.85;;;;;;;11.14;78.78;100225.44;5100135;28;20523;-46
2021/05/21 02:51:46;;;;;;;;;;;;;;;11.08;77.48;100221.94;5111933;28;20495;-50
2021/05/21 02:54:14;;;;;;;38.17;5.95;;;;;;;11.10;77.65;100218.84;5111812;28;19978;-48
2021/05/21 02:56:42;;;;;;;40.28;5.72;;;;;;;11.14;77.20;100217.88;5110911;28;20055;-45
2021/05/21 02:59:09;;;;;;;39.35;5.93;;;;;;;11.19;77.05;100217.72;5111514;28;20043;-53
2021/05/21 03:01:37;;;;;;;40.55;6.10;;;;;;;11.21;76.80;100197.88;5111367;28;20065;-53
2021/05/21 03:04:06;;;;;;;34.78;5.50;;;;;;;11.23;76.65;100209.53;5111096;28;20039;-53
2021/05/21 03:06:33;;;;;;;38.88;6.05;;;;;;;11.24;76.42;100206.44;5111850;28;20568;-54
2021/05/21 03:09:00;;;;;;;31.95;5.65;;;;;;;11.23;76.23;100199.19;5111537;28;20465;-48
2021/05/21 03:11:28;;;;;;;34.30;6.28;;;;;;;11.28;75.79;100209.41;5110915;28;20127;-49
2021/05/21 03:13:55;;;;;;;35.78;5.90;;;;;;;11.29;75.21;100202.69;5111380;28;20163;-50
2021/05/21 03:16:22;;;;;;;39.08;5.80;;;;;;;11.30;75.46;100187.56;5111393;28;20063;-51
2021/05/21 03:18:50;;;;;;;26.52;4.93;;;;;;;11.29;75.05;100202.69;5110832;28;20052;-53
2021/05/21 03:21:18;;;;;;;36.67;5.70;;;;;;;11.32;75.62;100183.31;5113055;28;20492;-51
2021/05/21 03:23:46;;;;;;;34.72;5.65;;;;;;;11.33;75.62;100184.97;5115598;28;20050;-50
2021/05/21 03:26:13;;;;;;;38.55;5.85;;;;;;;11.32;75.72;100191.69;5115189;28;20052;-52
2021/05/21 03:28:41;;;;;;;38.08;6.82;;;;;;;11.31;75.92;100180.84;5115197;28;20039;-47
2021/05/21 03:31:09;;;;;;;35.90;5.57;;;;;;;11.31;75.52;100169.69;5115512;27;20082;-46
2021/05/21 03:33:36;;;;;;;36.10;6.28;;;;;;;11.29;75.77;100171.97;5114718;28;20043;-52
2021/05/21 03:36:05;;;;;;;37.67;6.55;;;;;;;11.29;76.21;100172.78;5115479;28;20051;-53
2021/05/21 03:38:33;;;;;;;36.00;5.60;;;;;;;11.24;76.26;100158.97;5113623;28;20044;-50
2021/05/21 03:41:00;;;;;;;36.63;6.13;;;;;;;11.25;76.02;100159.78;5115101;28;20084;-47
2021/05/21 03:43:28;;;;;;;39.45;6.60;;;;;;;11.21;76.08;100162.38;5114397;28;20093;-51
2021/05/21 03:45:55;;;;;;;44.42;7.13;;;;;;;11.23;76.36;100168.47;5113564;28;20455;-50
2021/05/21 03:48:22;;;;;;;34.65;6.07;;;;;;;11.20;76.10;100168.28;5114800;28;20488;-50
2021/05/21 03:50:51;;;;;;;34.97;5.72;;;;;;;11.21;75.96;100170.75;5110085;28;20100;-49
2021/05/21 03:53:18;;;;;;;35.63;6.22;;;;;;;11.22;75.80;100161.25;5114456;28;20412;-47
2021/05/21 03:55:46;;;;;;;38.15;5.65;;;;;;;11.23;76.16;100151.72;5114772;28;20128;-50
2021/05/21 03:58:14;;;;;;;32.85;6.18;;;;;;;11.23;76.47;100162.06;5115224;28;20457;-51
2021/05/21 04:00:41;;;;;;;36.92;6.45;;;;;;;11.22;77.02;100144.47;5114410;28;20459;-49
2021/05/21 04:03:09;;;;;;;32.45;5.57;;;;;;;11.18;77.07;100146.28;5114810;28;20517;-49
2021/05/21 04:05:36;;;;;;;32.67;5.90;;;;;;;11.20;77.15;100134.78;5114658;28;20081;-49
2021/05/21 04:08:04;;;;;;;41.17;6.53;;;;;;;11.21;76.98;100148.41;5114059;28;20051;-51
2021/05/21 04:10:32;;;;;;;32.65;6.20;;;;;;;11.22;76.52;100130.53;5114599;28;20047;-48
2021/05/21 04:13:00;;;;;;;28.88;5.20;;;;;;;11.23;76.44;100131.34;5114644;28;20047;-49
2021/05/21 04:15:28;;;;;;;38.92;5.07;;;;;;;11.25;76.44;100152.22;5114125;28;20058;-48
2021/05/21 04:17:55;;;;;;;37.13;5.63;;;;;;;11.28;76.43;100126.44;5114417;28;20048;-48
2021/05/21 04:20:23;;;;;;;35.72;6.40;;;;;;;11.32;76.44;100130.25;5114679;28;20446;-51
2021/05/21 04:22:50;;;;;;;34.80;6.18;;;;;;;11.30;76.52;100113.00;5113643;28;20063;-50
2021/05/21 04:25:17;;;;;;;40.13;6.60;;;;;;;11.28;75.81;100122.84;5114145;28;20048;-49
2021/05/21 04:27:45;;;;;;;43.72;6.22;;;;;;;11.32;76.29;100110.69;5113751;28;20092;-49
2021/05/21 04:30:14;;;;;;;39.55;6.25;;;;;;;11.34;76.54;100113.19;5114134;28;20122;-52
2021/05/21 04:32:42;;;;;;;33.67;5.75;;;;;;;11.31;76.32;100106.25;5103247;28;20100;-48
2021/05/21 04:35:10;;;;;;;49.35;7.93;;;;;;;11.32;76.47;100098.69;5113481;28;20050;-51
2021/05/21 04:37:38;;;;;;;41.10;6.63;;;;;;;11.33;76.47;100106.75;5114087;28;20707;-49
2021/05/21 04:40:07;;;;;;;39.55;6.28;;;;;;;11.32;76.68;100095.91;5114051;28;20096;-50
2021/05/21 04:42:43;;;;;;;30.95;6.13;;;;;;;11.31;76.62;100086.72;5111307;28;20056;-49
2021/05/21 04:45:15;;;;;;;46.72;6.88;;;;;;;11.33;76.71;100094.78;5113199;28;20212;-50
2021/05/21 04:47:43;;;;;;;36.28;6.30;;;;;;;11.32;76.77;100079.16;5112650;28;20113;-47
2021/05/21 04:50:10;;;;;;;45.85;7.38;;;;;;;11.33;76.76;100078.84;5113303;28;20518;-49
2021/05/21 04:52:38;;;;;;;41.03;5.63;;;;;;;11.31;76.51;100081.13;5113765;28;20519;-51
2021/05/21 04:55:07;;;;;;;32.10;5.63;;;;;;;11.33;76.61;100087.22;5113669;28;20461;-47
2021/05/21 04:57:34;;;;;;;38.42;6.88;;;;;;;11.35;76.91;100070.13;5113089;28;20043;-46
2021/05/21 05:00:01;;;;;;;33.15;6.18;;;;;;;11.34;76.86;100054.53;5113419;28;20044;-47
2021/05/21 05:02:30;;;;;;;43.78;6.25;;;;;;;11.36;76.75;100061.44;5113256;28;20059;-49
2021/05/21 05:04:57;;;;;;;33.72;6.28;;;;;;;11.36;76.54;100053.06;5112928;28;20051;-49
2021/05/21 05:07:24;;;;;;;40.72;6.35;;;;;;;11.37;76.25;100057.50;5113604;28;20412;-48
2021/05/21 05:09:52;;;;;;;38.63;6.25;;;;;;;11.38;76.63;100050.75;5113224;28;20104;-46
2021/05/21 05:12:19;;;;;;;39.83;6.72;;;;;;;11.42;76.81;100047.28;5113285;28;20035;-48
2021/05/21 05:14:46;;;;;;;30.95;5.10;;;;;;;11.35;77.42;100058.97;5113183;28;20052;-49
2021/05/21 05:17:14;;;;;;;38.83;6.68;;;;;;;11.33;77.95;100053.69;5112822;28;20116;-48
2021/05/21 05:19:42;;;;;;;35.13;5.75;;;;;;;11.32;78.77;100056.81;5113171;28;20116;-48
2021/05/21 05:22:10;;;;;;;34.63;5.57;;;;;;;11.26;78.92;100050.53;5113092;28;20051;-51
2021/05/21 05:24:38;;;;;;;34.33;5.78;;;;;;;11.22;79.37;100043.13;5112614;28;20047;-46
2021/05/21 05:27:06;;;;;;;33.60;5.28;;;;;;;11.22;79.58;100046.75;5112834;28;20504;-49
2021/05/21 05:29:34;;;;;;;32.70;6.28;;;;;;;11.21;79.58;100036.72;5101718;28;20039;-47
2021/05/21 05:32:01;;;;;;;31.13;5.55;;;;;;;11.22;79.49;100040.34;5112295;28;20047;-49
2021/05/21 05:34:29;;;;;;;34.75;6.28;;;;;;;11.21;79.30;100033.91;5113173;28;20472;-51
2021/05/21 05:36:57;;;;;;;31.13;5.50;;;;;;;11.23;79.43;100023.25;5112844;28;20054;-50
2021/05/21 05:39:24;;;;;;;33.08;5.82;;;;;;;11.26;79.40;100027.38;5112273;28;20405;-46
2021/05/21 05:41:52;;;;;;;40.10;6.05;;;;;;;11.28;79.55;100028.69;5112647;28;20055;-51
2021/05/21 05:44:20;;;;;;;35.90;5.97;;;;;;;11.27;79.76;100018.66;5111743;27;20128;-48
2021/05/21 05:46:47;;;;;;;38.08;5.93;;;;;;;11.28;79.51;100011.94;5112350;28;20056;-47
2021/05/21 05:49:15;;;;;;;40.60;5.60;;;;;;;11.32;79.49;100015.72;5112600;28;20557;-47
2021/05/21 05:51:42;;;;;;;40.40;7.43;;;;;;;11.34;79.36;100018.22;5112613;27;20043;-52
2021/05/21 05:54:10;;;;;;;41.85;7.30;;;;;;;11.35;79.19;100017.88;5112078;28;20051;-49
2021/05/21 05:56:38;;;;;;;47.08;6.72;;;;;;;11.36;78.73;100008.34;5112218;28;20609;-46
2021/05/21 05:59:05;;;;;;;46.13;7.50;;;;;;;11.38;78.41;100014.44;5111331;28;20055;-48
2021/05/21 06:01:33;;;;;;;43.88;7.68;;;;;;;11.39;77.63;100007.69;5112432;28;20040;-47
2021/05/21 06:04:00;;;;;;;41.50;7.10;;;;;;;11.38;76.87;100014.44;5112287;28;20043;-48
2021/05/21 06:06:27;;;;;;;35.92;6.10;;;;;;;11.43;76.74;99995.84;5111806;28;20419;-46
2021/05/21 06:08:56;;;;;;;40.75;6.63;;;;;;;11.46;76.80;99998.84;5112211;28;20058;-47
2021/05/21 06:11:25;;;;;;;47.95;8.00;;;;;;;11.46;76.58;99998.00;5110820;28;20047;-48
2021/05/21 06:13:53;;;;;;;43.95;7.43;;;;;;;11.46;76.50;100006.38;5108442;28;20069;-47
2021/05/21 06:16:20;;;;;;;39.42;6.90;;;;;;;11.52;76.68;99997.53;5112402;28;20047;-49
2021/05/21 06:18:48;;;;;;;38.33;7.20;;;;;;;11.47;76.42;99999.66;5111618;28;20093;-48
2021/05/21 06:21:16;;;;;;;44.20;7.38;;;;;;;11.43;77.75;100004.25;5111781;28;20047;-48
2021/05/21 06:23:44;;;;;;;42.80;7.05;;;;;;;11.38;78.26;99999.66;5111640;28;20051;-48
2021/05/21 06:26:17;;;;;;;43.88;6.68;;;;;;;11.31;78.49;100005.72;5112344;28;20039;-53
2021/05/21 06:28:48;;;;;;;;;;;;;;;11.17;79.53;100007.81;5111826;28;20562;-48
2021/05/21 06:31:15;;;;;;;37.13;7.25;;;;;;;11.16;80.00;100010.94;5112190;28;19947;-54
2021/05/21 06:33:42;;;;;;;44.13;7.93;;;;;;;11.17;79.93;99967.91;5111736;28;20051;-49
2021/05/21 06:36:10;;;;;;;36.65;6.63;;;;;;;11.13;79.77;99990.06;5111335;28;20051;-50
2021/05/21 06:38:38;;;;;;;40.45;6.97;;;;;;;11.18;79.56;99992.72;5111856;28;20048;-50
2021/05/21 06:41:06;;;;;;;45.13;8.60;;;;;;;11.22;79.81;99993.69;5111824;28;20054;-49
2021/05/21 06:43:34;;;;;;;38.65;7.07;;;;;;;11.24;79.52;100002.56;5110645;28;20458;-48
2021/05/21 06:46:04;;;;;;;40.40;7.25;;;;;;;11.25;79.32;99986.63;5110286;28;20043;-46
2021/05/21 06:48:32;;;;;;;43.88;6.63;;;;;;;11.27;78.96;100009.47;5100073;28;20492;-46
2021/05/21 06:51:01;;;;;;;46.50;7.78;;;;;;;11.30;78.93;100006.03;5111617;28;20071;-47
2021/05/21 06:53:28;;;;;;;41.90;6.88;;;;;;;11.31;78.93;100002.09;5111470;28;20531;-48
2021/05/21 06:55:56;;;;;;;44.70;7.43;;;;;;;11.37;79.05;99998.00;5110311;28;20121;-46
2021/05/21 06:58:25;;;;;;;44.88;8.07;;;;;;;11.38;78.95;99991.28;5108732;28;20043;-48
2021/05/21 07:00:54;;;;;;;48.60;8.50;;;;;;;11.46;79.05;99995.22;5099108;28;20125;-46
2021/05/21 07:03:25;;;;;;;44.50;7.95;;;;;;;11.48;78.77;99990.13;5109988;28;20048;-50
2021/05/21 07:05:53;;;;;;;45.70;8.02;;;;;;;11.50;78.51;100010.19;5111337;28;20067;-49
2021/05/21 07:08:20;;;;;;;53.70;8.55;;;;;;;11.50;78.70;99994.25;5111021;28;20491;-54
2021/05/21 07:10:51;;;;;;;50.10;7.82;;;;;;;11.55;78.09;99996.06;5110656;28;20051;-52
2021/05/21 07:13:29;;;;;;;48.80;7.93;;;;;;;11.57;77.77;99991.78;5111381;28;20036;-47
2021/05/21 07:16:01;;;;;;;45.38;8.23;;;;;;;11.59;77.41;99985.88;5107793;28;20056;-50
2021/05/21 07:18:40;;;;;;;53.47;7.88;;;;;;;11.59;77.69;99983.88;5111044;28;20104;-51
2021/05/21 07:21:10;;;;;;;45.80;7.22;;;;;;;11.63;77.43;100004.44;5111340;28;20043;-46
2021/05/21 07:23:44;;;;;;;45.38;8.43;;;;;;;11.67;77.21;99999.03;5110390;28;20587;-51
2021/05/21 07:26:19;;;;;;;41.42;6.75;;;;;;;11.66;76.94;99998.19;5110431;28;20040;-46
2021/05/21 07:28:57;;;;;;;43.65;6.95;;;;;;;11.73;77.13;99992.13;5110695;28;20051;-52
2021/05/21 07:31:30;;;;;;;40.13;7.03;;;;;;;11.76;76.90;99968.28;5107121;28;20118;-45
2021/05/21 07:33:59;;;;;;;35.38;6.78;;;;;;;11.81;76.20;99971.75;5108003;28;20101;-46
2021/05/21 07:36:29;;;;;;;40.60;6.82;;;;;;;11.84;75.82;99999.06;5109386;28;20120;-46
2021/05/21 07:38:57;;;;;;;46.50;8.00;;;;;;;11.89;75.40;99987.72;5110532;28;20465;-49
2021/05/21 07:41:25;;;;;;;38.28;6.93;;;;;;;11.97;75.52;99991.69;5110852;28;20043;-49
2021/05/21 07:43:53;;;;;;;39.17;7.45;;;;;;;12.03;75.44;99982.75;5110495;28;20500;-50
2021/05/21 07:46:21;;;;;;;43.72;6.95;;;;;;;12.03;74.81;99991.16;5110108;28;20050;-50
2021/05/21 07:48:49;;;;;;;40.58;8.07;;;;;;;12.11;75.07;99980.31;5109773;28;20397;-49
2021/05/21 07:51:18;;;;;;;40.10;6.90;;;;;;;12.15;75.12;99986.88;5110977;28;20051;-48
2021/05/21 07:53:45;;;;;;;44.22;7.47;;;;;;;12.13;74.42;99984.41;5110132;28;20488;-57
2021/05/21 07:56:14;;;;;;;41.65;6.85;;;;;;;12.10;74.16;99981.44;5110896;28;20048;-50
2021/05/21 07:58:41;;;;;;;41.10;7.07;;;;;;;12.12;73.94;99984.75;5109918;28;20050;-48
2021/05/21 08:01:09;;;;;;;43.65;6.88;;;;;;;12.18;74.17;99983.44;5110405;28;20044;-46
2021/05/21 08:03:36;;;;;;;44.95;7.53;;;;;;;12.19;73.74;99980.28;5110281;28;20078;-47
2021/05/21 08:06:04;;;;;;;42.05;7.90;;;;;;;12.15;73.77;99973.72;5110118;28;20069;-48
2021/05/21 08:08:32;;;;;;;41.10;6.88;;;;;;;12.22;73.87;100010.38;5114253;28;20659;-55
2021/05/21 08:11:02;;;;;;;38.22;6.30;;;;;;;12.19;73.85;99971.09;5114362;28;20420;-48
2021/05/21 08:13:29;;;;;;;38.30;6.72;;;;;;;12.14;73.45;99971.25;5113646;28;20048;-46
2021/05/21 08:15:57;;;;;;;39.40;6.55;;;;;;;12.14;73.64;99980.47;5114456;28;20039;-45
2021/05/21 08:18:24;;;;;;;38.92;6.88;;;;;;;12.12;73.86;99974.38;5114235;28;20069;-47
2021/05/21 08:20:51;;;;;;;43.33;7.75;;;;;;;12.09;73.74;99983.44;5113983;28;20075;-50
2021/05/21 08:23:19;;;;;;;34.78;6.95;;;;;;;12.08;74.01;99992.97;5114270;28;20412;-49
2021/05/21 08:25:47;;;;;;;40.03;7.40;;;;;;;12.13;74.13;99978.00;5114300;28;20051;-46
2021/05/21 08:28:14;;;;;;;37.00;6.72;;;;;;;12.10;74.30;99981.44;5113513;28;20044;-49
2021/05/21 08:30:42;;;;;;;37.65;6.88;;;;;;;12.10;74.13;99973.06;5114078;28;20051;-47
2021/05/21 08:33:10;;;;;;;42.30;6.80;;;;;;;12.11;74.05;99992.31;5113972;28;20048;-51
2021/05/21 08:35:38;;;;;;;38.97;6.80;;;;;;;12.12;73.97;99976.34;5113502;28;20080;-51
2021/05/21 08:38:05;;;;;;;31.25;6.22;;;;;;;12.06;73.57;99990.50;5113793;28;20061;-53
2021/05/21 08:40:36;;;;;;;44.15;7.85;;;;;;;12.07;74.09;99988.53;5112771;28;20089;-47
2021/05/21 08:43:07;;;;;;;40.50;6.90;;;;;;;12.06;74.10;99990.50;5113241;28;20043;-48
2021/05/21 08:45:34;;;;;;;32.47;7.03;;;;;;;12.05;74.04;99972.06;5113457;28;20495;-50
2021/05/21 08:48:02;;;;;;;38.10;7.57;;;;;;;12.05;73.66;99982.44;5113330;28;20044;-50
2021/05/21 08:50:31;;;;;;;45.72;7.63;;;;;;;12.05;73.58;99985.22;5113689;28;20059;-51
2021/05/21 08:52:58;;;;;;;42.88;7.40;;;;;;;12.11;73.48;99978.31;5113526;28;20455;-50
2021/05/21 08:55:26;;;;;;;44.35;8.15;;;;;;;12.15;73.90;99976.53;5112817;28;20517;-52
2021/05/21 08:57:53;;;;;;;39.72;7.53;;;;;;;12.18;73.67;99991.81;5113326;28;20052;-52
2021/05/21 09:00:22;;;;;;;40.47;7.63;;;;;;;12.23;73.25;100014.81;5113562;28;20070;-48
2021/05/21 09:02:50;;;;;;;35.97;6.32;;;;;;;12.31;73.03;100002.00;5112884;28;20105;-47
2021/05/21 09:05:18;;;;;;;40.63;6.55;;;;;;;12.37;72.72;99984.72;5113312;28;20127;-48
2021/05/21 09:07:46;;;;;;;41.33;6.15;;;;;;;12.43;72.86;99996.53;5113299;28;20097;-49
2021/05/21 09:10:16;;;;;;;39.08;6.15;;;;;;;12.43;72.80;99986.16;5112613;28;20042;-50
2021/05/21 09:12:46;;;;;;;39.92;7.20;;;;;;;12.38;72.69;99991.94;5113200;28;20044;-50
2021/05/21 09:15:18;;;;;;;38.90;6.32;;;;;;;12.39;72.34;99987.97;5113533;28;20046;-47
2021/05/21 09:17:53;;;;;;;35.40;6.38;;;;;;;12.39;72.09;100013.16;5112672;28;20043;-47
2021/05/21 09:20:23;;;;;;;39.22;7.22;;;;;;;12.42;72.13;99992.06;5112635;28;20104;-48
2021/05/21 09:23:03;;;;;;;38.28;6.72;;;;;;;12.42;71.63;99997.69;5112808;28;20105;-45
2021/05/21 09:25:38;;;;;;;31.77;5.88;;;;;;;12.43;71.37;99988.13;5113026;28;20421;-51
2021/05/21 09:28:05;;;;;;;35.33;6.60;;;;;;;12.42;71.31;99987.31;5112988;28;20048;-48
2021/05/21 09:30:33;;;;;;;29.77;5.93;;;;;;;12.40;71.20;99989.59;5112321;28;20078;-47
2021/05/21 09:33:05;;;;;;;37.35;6.88;;;;;;;12.39;71.63;100007.56;5112652;28;20055;-50
2021/05/21 09:35:33;;;;;;;35.80;6.40;;;;;;;12.35;71.73;100009.41;5108844;28;20043;-45
2021/05/21 09:38:00;;;;;;;39.20;6.63;;;;;;;12.30;71.99;99981.59;5112530;28;20074;-49
2021/05/21 09:40:30;;;;;;;36.00;6.63;;;;;;;12.31;72.36;99996.41;5112407;28;20043;-47
2021/05/21 09:43:00;;;;;;;40.15;6.93;;;;;;;12.30;72.42;99964.81;5112737;28;20145;-52
2021/05/21 09:45:35;;;;;;;41.33;6.82;;;;;;;12.27;72.29;99998.22;5111609;28;20458;-48
2021/05/21 09:48:04;;;;;;;36.92;7.00;;;;;;;12.28;72.39;99995.09;5112851;28;20050;-48
2021/05/21 09:50:41;;;;;;;29.35;5.75;;;;;;;12.27;71.37;99987.03;5112382;28;20051;-49
2021/05/21 09:53:10;;;;;;;35.45;7.07;;;;;;;12.36;72.08;99966.28;5112273;28;20093;-49
2021/05/21 09:55:40;;;;;;;36.10;6.38;;;;;;;12.39;71.63;99992.75;5112046;28;20550;-50
2021/05/21 09:58:22;;;;;;;37.92;6.28;;;;;;;12.39;71.29;99981.53;5112523;28;20526;-46
2021/05/21 10:01:07;;;;;;;36.88;7.45;;;;;;;12.42;71.90;99970.50;5112088;28;20056;-45
2021/05/21 10:03:35;;;;;;;38.10;6.60;;;;;;;12.59;71.84;99980.84;5112820;28;20050;-48
2021/05/21 10:06:04;;;;;;;31.23;6.63;;;;;;;12.62;70.48;99991.38;5111321;28;20457;-47
2021/05/21 10:08:31;;;;;;;33.30;6.05;;;;;;;12.64;70.44;99997.47;5110572;28;20044;-50
2021/05/21 10:10:59;;;;;;;36.55;7.47;;;;;;;12.69;70.28;99960.88;5109850;28;20451;-45
2021/05/21 10:13:26;;;;;;;31.70;5.82;;;;;;;12.81;69.92;99973.34;5110042;28;20052;-47
2021/05/21 10:15:56;;;;;;;34.30;6.70;;;;;;;12.86;68.92;99979.59;5111302;28;20123;-50
2021/05/21 10:18:23;;;;;;;34.22;6.20;;;;;;;12.94;68.77;99970.34;5110746;28;20043;-50
2021/05/21 10:20:55;;;;;;;37.85;7.03;;;;;;;13.03;68.71;99956.28;5110463;28;20180;-46
2021/05/21 10:23:29;;;;;;;27.83;5.53;;;;;;;13.11;68.07;99984.25;5111213;28;20496;-46
2021/05/21 10:26:03;;;;;;;24.35;5.53;;;;;;;13.17;67.59;100001.72;5111927;28;20133;-53
2021/05/21 10:28:32;;;;;;;32.70;5.88;;;;;;;13.16;67.66;99985.25;5111748;28;20047;-47
2021/05/21 10:31:02;;;;;;;37.03;7.03;;;;;;;13.16;67.57;99990.88;5111762;28;20126;-49
2021/05/21 10:33:35;;;;;;;33.20;6.05;;;;;;;13.05;67.70;99981.97;5111199;28;20516;-47
2021/05/21 10:36:29;;;;;;;32.03;6.50;;;;;;;13.00;67.76;99973.75;5103117;28;20054;-50
2021/05/21 10:39:18;;;;;;;40.63;6.35;;;;;;;12.98;68.26;99984.50;5111979;28;20049;-49
2021/05/21 10:42:20;;;;;;;40.85;6.70;;;;;;;13.08;68.26;99986.91;5111058;28;20169;-51
2021/05/21 10:45:14;;;;;;;35.78;6.43;;;;;;;13.13;68.23;99988.69;5109567;28;20057;-49
2021/05/21 10:47:45;;;;;;;37.03;6.82;;;;;;;13.20;68.29;99975.81;5110868;28;20386;-48
2021/05/21 10:50:18;;;;;;;31.73;6.13;;;;;;;13.15;67.50;99976.03;5111541;28;20500;-48
2021/05/21 10:52:52;;;;;;;41.47;7.43;;;;;;;13.10;68.27;99977.00;5111157;28;20108;-47
2021/05/21 10:55:37;;;;;;;35.78;6.55;;;;;;;12.89;68.48;99980.91;5111451;28;20052;-47
2021/05/21 10:58:04;;;;;;;26.75;6.00;;;;;;;12.79;69.32;99981.28;5111195;28;20552;-47
2021/05/21 11:00:33;;;;;;;32.67;6.43;;;;;;;12.61;70.42;100000.09;5111154;28;20051;-46
2021/05/21 11:03:00;;;;;;;30.10;6.05;;;;;;;12.47;70.66;99997.50;5110228;28;20051;-51
2021/05/21 11:05:31;;;;;;;32.53;5.63;;;;;;;12.41;70.59;100007.22;5111284;28;20036;-49
2021/05/21 11:08:00;;;;;;;27.40;5.20;;;;;;;12.43;70.60;99977.75;5110997;28;20085;-50
2021/05/21 11:10:42;;;;;;;36.40;5.68;;;;;;;12.43;70.37;99979.72;5110672;28;20043;-51
2021/05/21 11:13:12;;;;;;;34.10;5.85;;;;;;;12.52;70.61;99965.72;5110909;28;20052;-48
2021/05/21 11:15:41;;;;;;;38.65;6.20;;;;;;;12.60;69.25;99990.06;5107053;28;20093;-45
2021/05/21 11:18:24;;;;;;;32.15;6.22;;;;;;;12.73;68.76;99969.44;5110950;28;20047;-46
2021/05/21 11:20:56;;;;;;;38.80;6.65;;;;;;;12.88;68.95;99962.47;5111228;28;20496;-48
2021/05/21 11:23:26;;;;;;;34.50;5.50;;;;;;;12.86;68.81;99957.19;5110380;28;20437;-52
2021/05/21 11:26:06;;;;;;;30.33;5.63;;;;;;;12.84;68.19;99958.69;5110067;28;20050;-46
2021/05/21 11:28:39;;;;;;;33.92;5.90;;;;;;;12.92;68.81;99971.84;5110742;28;20502;-47
2021/05/21 11:31:08;;;;;;;37.50;5.53;;;;;;;12.83;68.14;99969.06;5110418;28;20489;-49